createdAt,value
2023-05-15T00:01:11.795Z,16.50
2023-05-15T00:03:38.231Z,17.80
2023-05-15T00:06:05.016Z,20.27
2023-05-15T00:08:31.774Z,21.38
2023-05-15T00:11:01.474Z,19.27
2023-05-15T00:13:28.515Z,18.77
2023-05-15T00:15:54.865Z,17.88
2023-05-15T00:18:21.254Z,17.90
2023-05-15T00:20:47.507Z,17.90
2023-05-15T00:23:13.875Z,16.48
2023-05-15T00:25:40.381Z,18.70
2023-05-15T00:28:06.708Z,17.02
2023-05-15T00:30:33.005Z,17.92
2023-05-15T00:32:59.338Z,24.42
2023-05-15T00:35:26.126Z,22.27
2023-05-15T00:37:52.617Z,22.42
2023-05-15T00:40:20.932Z,20.25
2023-05-15T00:42:48.051Z,25.27
2023-05-15T00:45:15.308Z,19.50
2023-05-15T00:47:42.237Z,25.60
2023-05-15T00:50:08.901Z,26.45
2023-05-15T00:52:36.637Z,21.35
2023-05-15T00:55:03.764Z,19.80
2023-05-15T00:57:31.633Z,24.20
2023-05-15T00:59:59.097Z,23.23
2023-05-15T01:02:25.531Z,21.98
2023-05-15T01:04:51.895Z,24.92
2023-05-15T01:07:18.296Z,28.75
2023-05-15T01:09:45.226Z,25.40
2023-05-15T01:12:11.764Z,25.50
2023-05-15T01:14:38.045Z,25.65
2023-05-15T01:17:04.312Z,24.20
2023-05-15T01:19:30.878Z,23.77
2023-05-15T01:22:15.770Z,26.23
2023-05-15T01:24:42.046Z,29.38
2023-05-15T01:27:27.370Z,28.88
2023-05-15T01:30:12.578Z,26.73
2023-05-15T01:32:56.969Z,27.45
2023-05-15T01:35:28.011Z,25.98
2023-05-15T01:37:58.108Z,22.02
2023-05-15T01:40:25.583Z,25.23
2023-05-15T01:42:55.115Z,26.40
2023-05-15T01:45:23.078Z,25.15
2023-05-15T01:47:49.756Z,28.05
2023-05-15T01:50:17.425Z,26.83
2023-05-15T01:52:46.511Z,26.52
2023-05-15T01:55:13.439Z,26.25
2023-05-15T01:57:40.911Z,27.88
2023-05-15T02:00:08.288Z,27.58
2023-05-15T02:02:34.950Z,24.67
2023-05-15T02:05:01.445Z,29.60
2023-05-15T02:07:27.846Z,30.98
2023-05-15T02:09:54.211Z,25.23
2023-05-15T02:12:20.846Z,31.52
2023-05-15T02:14:48.555Z,25.05
2023-05-15T02:17:15.168Z,31.85
2023-05-15T02:19:41.642Z,28.05
2023-05-15T02:22:08.184Z,32.33
2023-05-15T02:24:34.516Z,29.00
2023-05-15T02:27:04.138Z,31.67
2023-05-15T02:29:42.418Z,27.55
2023-05-15T02:32:21.691Z,29.30
2023-05-15T02:35:27.031Z,26.95
2023-05-15T02:37:55.136Z,29.27
2023-05-15T02:40:23.387Z,29.92
2023-05-15T02:42:52.397Z,32.47
2023-05-15T02:45:19.630Z,31.33
2023-05-15T02:47:46.213Z,26.50
2023-05-15T02:50:12.590Z,26.48
2023-05-15T02:52:38.942Z,31.10
2023-05-15T02:55:06.239Z,36.05
2023-05-15T02:57:32.503Z,33.15
2023-05-15T03:00:00.424Z,36.13
2023-05-15T03:02:26.909Z,37.35
2023-05-15T03:04:53.299Z,34.78
2023-05-15T03:07:20.647Z,36.28
2023-05-15T03:09:47.040Z,36.45
2023-05-15T03:12:13.429Z,35.35
2023-05-15T03:14:39.924Z,34.10
2023-05-15T03:17:06.291Z,31.25
2023-05-15T03:19:32.595Z,34.55
2023-05-15T03:21:58.950Z,33.95
2023-05-15T03:24:25.264Z,34.88
2023-05-15T03:26:51.561Z,32.53
2023-05-15T03:29:18.034Z,29.77
2023-05-15T03:31:44.348Z,33.20
2023-05-15T03:34:10.659Z,34.35
2023-05-15T03:36:36.944Z,32.80
2023-05-15T03:39:03.236Z,36.10
2023-05-15T03:41:29.499Z,30.10
2023-05-15T03:43:55.825Z,36.05
2023-05-15T03:46:22.462Z,27.13
2023-05-15T03:48:48.811Z,30.98
2023-05-15T03:51:15.270Z,26.45
2023-05-15T03:53:41.608Z,26.65
2023-05-15T03:56:07.967Z,28.40
2023-05-15T03:58:34.357Z,29.48
2023-05-15T04:01:00.640Z,24.52
2023-05-15T04:03:27.180Z,24.55
2023-05-15T04:05:53.654Z,28.90
2023-05-15T04:08:19.955Z,27.45
2023-05-15T04:10:46.194Z,25.45
2023-05-15T04:13:12.556Z,23.27
2023-05-15T04:15:40.769Z,24.88
2023-05-15T04:18:07.091Z,28.50
2023-05-15T04:20:33.995Z,22.73
2023-05-15T04:23:00.566Z,29.83
2023-05-15T04:25:28.021Z,20.65
2023-05-15T04:27:54.348Z,24.15
2023-05-15T04:30:20.704Z,27.90
2023-05-15T04:32:47.205Z,21.70
2023-05-15T04:35:15.038Z,19.48
2023-05-15T04:37:41.929Z,20.83
2023-05-15T04:40:09.243Z,24.42
2023-05-15T04:42:36.789Z,24.45
2023-05-15T04:45:05.299Z,25.08
2023-05-15T04:47:32.409Z,27.65
2023-05-15T04:49:58.940Z,22.50
2023-05-15T04:52:25.369Z,23.88
2023-05-15T04:54:52.982Z,24.42
2023-05-15T04:57:19.422Z,25.88
2023-05-15T04:59:45.727Z,22.23
2023-05-15T05:02:11.979Z,21.77
2023-05-15T05:04:38.281Z,27.00
2023-05-15T05:07:05.865Z,21.55
2023-05-15T05:09:32.171Z,23.10
2023-05-15T05:12:02.203Z,22.02
2023-05-15T05:14:28.744Z,24.48
2023-05-15T05:16:55.081Z,20.35
2023-05-15T05:19:21.415Z,23.70
2023-05-15T05:21:47.714Z,23.10
2023-05-15T05:24:14.025Z,23.35
2023-05-15T05:26:43.049Z,21.15
2023-05-15T05:29:09.317Z,21.55
2023-05-15T05:31:35.646Z,23.35
2023-05-15T05:34:01.993Z,27.90
2023-05-15T05:36:28.255Z,25.63
2023-05-15T05:38:55.465Z,22.52
2023-05-15T05:41:21.835Z,20.00
2023-05-15T05:43:48.162Z,17.20
2023-05-15T05:46:14.534Z,18.77
2023-05-15T05:48:40.785Z,17.92
2023-05-15T05:51:07.358Z,18.67
2023-05-15T05:53:33.636Z,22.27
2023-05-15T05:56:00.193Z,18.08
2023-05-15T05:58:26.601Z,18.38
2023-05-15T06:00:53.324Z,24.15
2023-05-15T06:03:20.410Z,23.23
2023-05-15T06:05:46.861Z,22.02
2023-05-15T06:08:13.215Z,22.60
2023-05-15T06:10:40.000Z,21.00
2023-05-15T06:13:06.559Z,24.80
2023-05-15T06:15:32.889Z,24.70
2023-05-15T06:17:59.339Z,24.98
2023-05-15T06:20:25.892Z,23.90
2023-05-15T06:22:52.481Z,25.38
2023-05-15T06:25:18.887Z,24.45
2023-05-15T06:27:45.336Z,26.67
2023-05-15T06:30:12.212Z,24.15
2023-05-15T06:32:38.662Z,22.42
2023-05-15T06:35:05.358Z,22.70
2023-05-15T06:37:31.906Z,27.08
2023-05-15T06:39:58.241Z,23.55
2023-05-15T06:42:24.491Z,24.67
2023-05-15T06:44:50.810Z,22.33
2023-05-15T06:47:17.150Z,25.17
2023-05-15T06:49:43.552Z,23.67
2023-05-15T06:52:09.874Z,20.67
2023-05-15T06:54:36.238Z,23.25
2023-05-15T06:57:02.553Z,21.13
2023-05-15T06:59:29.022Z,20.92
2023-05-15T07:01:56.100Z,22.15
2023-05-15T07:04:22.654Z,21.63
2023-05-15T07:06:49.030Z,21.60
2023-05-15T07:09:15.330Z,22.77
2023-05-15T07:11:42.156Z,20.63
2023-05-15T07:14:08.509Z,20.95
2023-05-15T07:16:34.851Z,19.92
2023-05-15T07:19:01.295Z,23.88
2023-05-15T07:21:27.979Z,22.25
2023-05-15T07:23:54.233Z,19.30
2023-05-15T07:26:32.524Z,20.98
2023-05-15T07:29:04.086Z,18.52
2023-05-15T07:31:33.787Z,23.35
2023-05-15T07:34:00.324Z,22.52
2023-05-15T07:36:26.600Z,20.92
2023-05-15T07:38:52.955Z,24.15
2023-05-15T07:41:19.223Z,27.83
2023-05-15T07:43:45.500Z,24.08
2023-05-15T07:46:11.851Z,22.35
2023-05-15T07:48:38.162Z,23.48
2023-05-15T07:51:04.491Z,21.20
2023-05-15T07:53:30.996Z,23.85
2023-05-15T07:55:57.304Z,23.85
2023-05-15T07:58:23.726Z,23.67
2023-05-15T08:00:50.195Z,21.67
2023-05-15T08:03:17.129Z,20.63
2023-05-15T08:05:43.567Z,19.02
2023-05-15T08:08:09.957Z,19.60
2023-05-15T08:10:36.226Z,21.13
2023-05-15T08:13:02.497Z,18.92
2023-05-15T08:15:29.322Z,18.13
2023-05-15T08:17:55.896Z,19.05
2023-05-15T08:20:22.274Z,23.75
2023-05-15T08:22:48.534Z,20.23
2023-05-15T08:25:14.836Z,23.60
2023-05-15T08:27:41.155Z,21.73
2023-05-15T08:30:08.420Z,22.05
2023-05-15T08:32:34.726Z,18.92
2023-05-15T08:35:01.205Z,21.25
2023-05-15T08:37:27.490Z,18.35
2023-05-15T08:39:53.839Z,20.90
2023-05-15T08:42:21.770Z,21.00
2023-05-15T08:44:48.143Z,20.35
2023-05-15T08:47:15.084Z,17.75
2023-05-15T08:49:51.255Z,16.63
2023-05-15T08:52:17.593Z,17.58
2023-05-15T08:54:45.488Z,20.10
2023-05-15T08:57:14.687Z,17.40
2023-05-15T08:59:41.123Z,15.85
2023-05-15T09:02:07.565Z,19.00
2023-05-15T09:04:33.977Z,19.17
2023-05-15T09:07:00.826Z,15.57
2023-05-15T09:09:27.624Z,19.55
2023-05-15T09:11:54.145Z,17.75
2023-05-15T09:14:20.569Z,15.15
2023-05-15T09:16:50.195Z,20.70
2023-05-15T09:19:18.721Z,17.92
2023-05-15T09:21:45.143Z,15.57
2023-05-15T09:24:19.043Z,17.10
2023-05-15T09:26:46.299Z,16.90
2023-05-15T09:29:17.400Z,16.20
2023-05-15T09:31:46.327Z,18.02
2023-05-15T09:34:12.930Z,18.13
2023-05-15T09:36:42.379Z,17.50
2023-05-15T09:39:08.824Z,16.30
2023-05-15T09:41:35.129Z,17.77
2023-05-15T09:44:01.422Z,19.52
2023-05-15T09:46:27.810Z,20.02
2023-05-15T09:48:54.456Z,18.33
2023-05-15T09:51:20.862Z,18.63
2023-05-15T09:53:50.921Z,20.60
2023-05-15T09:56:17.679Z,19.50
2023-05-15T09:58:56.926Z,21.45
2023-05-15T10:01:24.249Z,20.05
2023-05-15T10:04:00.595Z,21.75
2023-05-15T10:06:27.069Z,24.55
2023-05-15T10:08:54.240Z,24.65
2023-05-15T10:11:24.113Z,27.52
2023-05-15T10:13:50.782Z,25.55
2023-05-15T10:16:19.317Z,25.02
2023-05-15T10:18:46.344Z,28.67
2023-05-15T10:21:13.633Z,31.08
2023-05-15T10:23:41.100Z,34.58
2023-05-15T10:26:18.252Z,34.10
2023-05-15T10:28:45.809Z,41.88
2023-05-15T10:31:12.866Z,38.78
2023-05-15T10:33:39.827Z,37.38
2023-05-15T10:36:07.282Z,36.90
2023-05-15T10:38:34.091Z,35.15
2023-05-15T10:41:13.076Z,36.75
2023-05-15T10:43:43.387Z,40.53
2023-05-15T10:46:10.770Z,34.35
2023-05-15T10:48:37.156Z,41.25
2023-05-15T10:51:03.556Z,41.58
2023-05-15T10:53:29.784Z,39.67
2023-05-15T10:55:56.105Z,44.60
2023-05-15T10:58:25.364Z,39.33
2023-05-15T11:00:51.689Z,41.42
2023-05-15T11:03:47.845Z,37.45
2023-05-15T11:06:15.882Z,36.60
2023-05-15T11:08:45.848Z,39.92
2023-05-15T11:11:30.998Z,40.22
2023-05-15T11:14:07.857Z,34.47
2023-05-15T11:16:52.408Z,30.83
2023-05-15T11:19:22.388Z,31.38
2023-05-15T11:21:56.922Z,34.85
2023-05-15T11:24:32.986Z,27.93
2023-05-15T11:26:59.887Z,32.35
2023-05-15T11:29:26.645Z,30.65
2023-05-15T11:31:53.089Z,28.38
2023-05-15T11:34:48.880Z,26.50
2023-05-15T11:37:18.004Z,26.45
2023-05-15T11:39:44.415Z,23.60
2023-05-15T11:42:14.126Z,28.65
2023-05-15T11:44:40.588Z,28.52
2023-05-15T11:47:10.881Z,24.63
2023-05-15T11:49:38.110Z,23.05
2023-05-15T11:52:04.688Z,24.15
2023-05-15T11:54:30.996Z,24.90
2023-05-15T11:56:57.601Z,23.40
2023-05-15T11:59:26.842Z,25.58
2023-05-15T12:01:53.116Z,22.10
2023-05-15T12:04:19.627Z,20.42
2023-05-15T12:06:49.909Z,21.40
2023-05-15T12:09:17.429Z,24.65
2023-05-15T12:11:53.645Z,21.80
2023-05-15T12:14:26.768Z,18.63
2023-05-15T12:16:53.376Z,17.58
2023-05-15T12:19:23.779Z,19.48
2023-05-15T12:21:50.853Z,18.80
2023-05-15T12:24:19.814Z,17.00
2023-05-15T12:26:46.731Z,19.08
2023-05-15T12:29:13.622Z,17.17
2023-05-15T12:31:40.057Z,15.85
2023-05-15T12:34:06.581Z,15.95
2023-05-15T12:36:33.175Z,20.33
2023-05-15T12:39:04.429Z,16.15
2023-05-15T12:41:31.155Z,15.85
2023-05-15T12:43:57.525Z,14.98
2023-05-15T12:46:25.519Z,14.77
2023-05-15T12:48:51.927Z,16.77
2023-05-15T12:51:18.568Z,14.00
2023-05-15T12:53:44.900Z,14.70
2023-05-15T12:56:15.911Z,13.60
2023-05-15T12:58:42.253Z,18.08
2023-05-15T13:01:08.629Z,14.18
2023-05-15T13:03:35.622Z,18.10
2023-05-15T13:06:03.380Z,14.63
2023-05-15T13:08:29.763Z,16.83
2023-05-15T13:10:59.667Z,17.00
2023-05-15T13:14:01.407Z,15.60
2023-05-15T13:16:29.781Z,18.75
2023-05-15T13:18:58.322Z,20.52
2023-05-15T13:21:24.945Z,17.30
2023-05-15T13:23:51.826Z,18.98
2023-05-15T13:26:18.264Z,21.15
2023-05-15T13:28:44.569Z,17.83
2023-05-15T13:31:10.934Z,17.05
2023-05-15T13:33:37.559Z,13.98
2023-05-15T13:36:04.053Z,12.13
2023-05-15T13:38:30.567Z,9.38
2023-05-15T13:40:56.896Z,8.75
2023-05-15T13:43:25.157Z,13.32
2023-05-15T13:45:52.806Z,11.00
2023-05-15T13:48:19.198Z,11.25
2023-05-15T13:50:45.805Z,11.38
2023-05-15T13:53:16.644Z,14.13
2023-05-15T13:55:44.753Z,10.00
2023-05-15T13:58:14.121Z,13.65
2023-05-15T14:00:42.388Z,12.18
2023-05-15T14:03:08.757Z,10.57
2023-05-15T14:05:35.172Z,11.73
2023-05-15T14:08:02.537Z,9.15
2023-05-15T14:10:29.299Z,13.25
2023-05-15T14:12:55.550Z,12.13
2023-05-15T14:15:21.849Z,9.60
2023-05-15T14:17:48.797Z,9.27
2023-05-15T14:20:15.197Z,8.52
2023-05-15T14:22:41.504Z,6.95
2023-05-15T14:25:08.762Z,9.68
2023-05-15T14:27:35.384Z,8.77
2023-05-15T14:30:01.691Z,10.18
2023-05-15T14:32:27.981Z,10.73
2023-05-15T14:34:54.272Z,10.45
2023-05-15T14:37:20.661Z,9.07
2023-05-15T14:39:46.946Z,9.60
2023-05-15T14:42:13.272Z,8.35
2023-05-15T14:44:39.533Z,8.07
2023-05-15T14:47:07.270Z,9.00
2023-05-15T14:49:33.957Z,9.07
2023-05-15T14:52:00.471Z,12.18
2023-05-15T14:54:26.722Z,11.75
2023-05-15T14:56:53.770Z,15.10
2023-05-15T14:59:21.089Z,12.82
2023-05-15T15:01:47.531Z,13.32
2023-05-15T15:04:14.271Z,9.88
2023-05-15T15:06:41.215Z,14.25
2023-05-15T15:09:07.507Z,11.15
2023-05-15T15:11:33.845Z,12.73
2023-05-15T15:14:00.674Z,11.43
2023-05-15T15:16:27.093Z,9.60
2023-05-15T15:18:53.522Z,9.70
2023-05-15T15:21:19.829Z,9.32
2023-05-15T15:23:46.218Z,12.40
2023-05-15T15:26:12.549Z,11.57
2023-05-15T15:28:38.916Z,8.23
2023-05-15T15:31:05.299Z,8.55
2023-05-15T15:33:31.775Z,10.15
2023-05-15T15:35:58.216Z,10.20
2023-05-15T15:38:24.573Z,9.93
2023-05-15T15:40:51.300Z,8.02
2023-05-15T15:43:17.676Z,10.60
2023-05-15T15:45:44.080Z,12.20
2023-05-15T15:48:10.493Z,11.65
2023-05-15T15:50:38.364Z,8.52
2023-05-15T15:53:04.691Z,8.13
2023-05-15T15:55:31.036Z,7.75
2023-05-15T15:57:57.383Z,8.52
2023-05-15T16:00:24.082Z,10.85
2023-05-15T16:02:50.723Z,7.70
2023-05-15T16:05:17.100Z,8.48
2023-05-15T16:07:43.365Z,7.57
2023-05-15T16:10:13.121Z,6.05
2023-05-15T16:12:40.667Z,6.53
2023-05-15T16:15:20.776Z,8.50
2023-05-15T16:17:50.409Z,7.35
2023-05-15T16:20:16.894Z,6.50
2023-05-15T16:22:43.893Z,6.82
2023-05-15T16:25:10.434Z,8.15
2023-05-15T16:27:36.772Z,6.68
2023-05-15T16:30:03.172Z,5.30
2023-05-15T16:32:29.488Z,6.05
2023-05-15T16:34:55.876Z,5.35
2023-05-15T16:37:22.156Z,4.85
2023-05-15T16:39:48.736Z,6.43
2023-05-15T16:42:16.342Z,4.90
2023-05-15T16:44:42.714Z,7.28
2023-05-15T16:47:09.037Z,6.78
2023-05-15T16:49:35.387Z,3.63
2023-05-15T16:52:01.657Z,3.60
2023-05-15T16:54:27.946Z,5.38
2023-05-15T16:56:54.346Z,4.63
2023-05-15T16:59:20.680Z,3.58
2023-05-15T17:01:47.087Z,6.35
2023-05-15T17:04:13.496Z,2.17
2023-05-15T17:06:39.790Z,5.68
2023-05-15T17:09:06.158Z,3.05
2023-05-15T17:11:32.447Z,5.85
2023-05-15T17:13:58.774Z,4.57
2023-05-15T17:16:25.097Z,5.00
2023-05-15T17:18:51.467Z,4.65
2023-05-15T17:21:17.790Z,4.68
2023-05-15T17:23:44.112Z,7.95
2023-05-15T17:26:10.472Z,5.25
2023-05-15T17:28:38.948Z,5.32
2023-05-15T17:31:10.018Z,6.97
2023-05-15T17:33:36.453Z,3.72
2023-05-15T17:36:02.822Z,6.72
2023-05-15T17:38:29.431Z,7.88
2023-05-15T17:40:55.852Z,9.85
2023-05-15T17:43:22.260Z,11.30
2023-05-15T17:45:48.713Z,9.52
2023-05-15T17:48:15.301Z,6.70
2023-05-15T17:50:42.129Z,6.90
2023-05-15T17:53:08.431Z,6.65
2023-05-15T17:55:35.273Z,6.85
2023-05-15T17:58:01.630Z,14.02
2023-05-15T18:00:27.940Z,9.40
2023-05-15T18:02:54.493Z,16.38
2023-05-15T18:05:20.848Z,5.10
2023-05-15T18:07:48.200Z,12.20
2023-05-15T18:10:14.653Z,5.63
2023-05-15T18:12:40.986Z,12.27
2023-05-15T18:15:07.491Z,9.63
2023-05-15T18:17:33.814Z,10.77
2023-05-15T18:20:00.205Z,8.93
2023-05-15T18:22:26.608Z,9.52
2023-05-15T18:24:53.076Z,22.90
2023-05-15T18:27:19.463Z,16.60
2023-05-15T18:29:45.780Z,8.43
2023-05-15T18:32:12.098Z,13.23
2023-05-15T18:34:38.485Z,25.10
2023-05-15T18:37:04.912Z,6.43
2023-05-15T18:39:31.178Z,5.15
2023-05-15T18:41:57.644Z,6.10
2023-05-15T18:44:24.028Z,7.15
2023-05-15T18:46:50.388Z,7.22
2023-05-15T18:49:18.012Z,7.07
2023-05-15T18:51:44.407Z,6.47
2023-05-15T18:54:10.734Z,4.47
2023-05-15T18:56:36.996Z,8.45
2023-05-15T18:59:05.622Z,9.20
2023-05-15T19:01:32.214Z,6.03
2023-05-15T19:03:58.779Z,3.47
2023-05-15T19:06:25.204Z,7.82
2023-05-15T19:08:51.512Z,3.58
2023-05-15T19:11:18.008Z,6.05
2023-05-15T19:13:44.588Z,5.80
2023-05-15T19:16:12.312Z,5.10
2023-05-15T19:18:38.822Z,4.43
2023-05-15T19:21:05.312Z,3.13
2023-05-15T19:23:31.657Z,3.00
2023-05-15T19:25:57.946Z,5.47
2023-05-15T19:28:24.338Z,1.83
2023-05-15T19:30:50.894Z,3.67
2023-05-15T19:33:17.402Z,3.38
2023-05-15T19:35:44.261Z,1.98
2023-05-15T19:38:10.770Z,5.93
2023-05-15T19:40:37.084Z,1.90
2023-05-15T19:43:03.361Z,4.68
2023-05-15T19:45:30.494Z,2.70
2023-05-15T19:47:56.964Z,2.67
2023-05-15T19:50:23.451Z,5.18
2023-05-15T19:52:49.812Z,2.97
2023-05-15T19:55:16.455Z,2.83
2023-05-15T19:57:44.935Z,5.68
2023-05-15T20:00:12.417Z,2.03
2023-05-15T20:02:38.890Z,4.80
2023-05-15T20:05:05.512Z,3.90
2023-05-15T20:07:31.825Z,4.97
2023-05-15T20:09:58.157Z,3.05
2023-05-15T20:12:24.587Z,3.97
2023-05-15T20:14:51.722Z,3.72
2023-05-15T20:17:18.146Z,3.25
2023-05-15T20:19:44.604Z,2.90
2023-05-15T20:22:10.886Z,3.55
2023-05-15T20:24:38.629Z,5.45
2023-05-15T20:27:05.362Z,4.95
2023-05-15T20:29:31.653Z,6.10
2023-05-15T20:31:58.757Z,6.13
2023-05-15T20:34:25.218Z,3.53
2023-05-15T20:36:52.961Z,7.18
2023-05-15T20:39:19.675Z,4.00
2023-05-15T20:41:46.385Z,6.40
2023-05-15T20:44:12.766Z,6.95
2023-05-15T20:46:39.937Z,6.00
2023-05-15T20:49:06.449Z,8.27
2023-05-15T20:51:33.046Z,9.48
2023-05-15T20:53:59.361Z,7.43
2023-05-15T20:56:26.098Z,6.70
2023-05-15T20:58:53.022Z,7.47
2023-05-15T21:01:19.423Z,5.15
2023-05-15T21:03:45.815Z,4.00
2023-05-15T21:06:13.735Z,5.25
2023-05-15T21:08:40.393Z,11.00
2023-05-15T21:11:07.137Z,11.13
2023-05-15T21:13:33.589Z,7.45
2023-05-15T21:16:00.144Z,6.28
2023-05-15T21:18:26.463Z,5.40
2023-05-15T21:20:53.090Z,5.68
2023-05-15T21:23:20.963Z,7.47
2023-05-15T21:25:47.378Z,8.82
2023-05-15T21:28:13.734Z,10.48
2023-05-15T21:30:40.016Z,8.77
2023-05-15T21:33:09.155Z,13.52
2023-05-15T21:35:37.010Z,9.10
2023-05-15T21:38:03.440Z,8.00
2023-05-15T21:40:29.759Z,8.35
2023-05-15T21:42:56.001Z,8.32
2023-05-15T21:45:22.400Z,11.07
2023-05-15T21:47:48.828Z,10.50
2023-05-15T21:50:15.434Z,9.15
2023-05-15T21:52:42.005Z,7.40
2023-05-15T21:55:08.549Z,10.57
2023-05-15T21:57:34.870Z,6.80
2023-05-15T22:00:01.213Z,11.52
2023-05-15T22:02:27.564Z,12.65
2023-05-15T22:04:53.932Z,10.02
2023-05-15T22:07:20.603Z,12.85
2023-05-15T22:09:47.119Z,4.95
2023-05-15T22:12:13.485Z,10.95
2023-05-15T22:14:50.672Z,13.05
2023-05-15T22:17:26.918Z,9.27
2023-05-15T22:19:53.532Z,10.88
2023-05-15T22:22:20.755Z,11.60
2023-05-15T22:24:47.213Z,12.05
2023-05-15T22:27:16.473Z,13.40
2023-05-15T22:29:42.820Z,14.45
2023-05-15T22:32:09.214Z,10.05
2023-05-15T22:34:35.863Z,4.07
2023-05-15T22:37:02.200Z,11.45
2023-05-15T22:39:28.798Z,7.43
2023-05-15T22:41:55.871Z,16.02
2023-05-15T22:44:22.405Z,11.70
2023-05-15T22:46:48.743Z,14.40
2023-05-15T22:49:19.167Z,8.35
2023-05-15T22:51:45.489Z,10.23
2023-05-15T22:54:11.849Z,11.02
2023-05-15T22:56:38.110Z,8.77
2023-05-15T22:59:04.443Z,14.75
2023-05-15T23:01:32.119Z,8.25
2023-05-15T23:03:58.840Z,13.90
2023-05-15T23:06:25.423Z,16.08
2023-05-15T23:08:51.692Z,13.05
2023-05-15T23:11:18.102Z,10.82
2023-05-15T23:13:44.454Z,7.18
2023-05-15T23:16:10.804Z,12.43
2023-05-15T23:18:37.221Z,10.85
2023-05-15T23:21:04.714Z,13.65
2023-05-15T23:23:31.140Z,9.93
2023-05-15T23:25:57.491Z,12.30
2023-05-15T23:28:23.762Z,13.70
2023-05-15T23:30:52.690Z,12.05
2023-05-15T23:33:19.060Z,13.25
2023-05-15T23:35:45.374Z,9.77
2023-05-15T23:38:11.619Z,13.10
2023-05-15T23:40:37.991Z,12.57
2023-05-15T23:43:04.289Z,19.73
2023-05-15T23:45:30.617Z,13.23
2023-05-15T23:47:56.967Z,11.32
2023-05-15T23:50:23.370Z,8.98
2023-05-15T23:52:49.943Z,12.50
2023-05-15T23:55:16.320Z,11.07
2023-05-15T23:57:43.590Z,13.63
